sensor_id;sensor_type;location;lat;lon;timestamp;temperature;humidity
24374;DHT22;12498;50.880;12.096;2023-02-02T00:00:18;3.50;99.90
24374;DHT22;12498;50.880;12.096;2023-02-02T00:02:44;3.50;99.90
24374;DHT22;12498;50.880;12.096;2023-02-02T00:05:10;3.50;99.90
24374;DHT22;12498;50.880;12.096;2023-02-02T00:07:36;3.50;99.90
24374;DHT22;12498;50.880;12.096;2023-02-02T00:10:02;3.50;99.90
24374;DHT22;12498;50.880;12.096;2023-02-02T00:12:27;3.40;99.90
24374;DHT22;12498;50.880;12.096;2023-02-02T00:14:53;3.70;99.90
24374;DHT22;12498;50.880;12.096;2023-02-02T00:17:19;3.70;99.90
24374;DHT22;12498;50.880;12.096;2023-02-02T00:19:44;3.70;99.90
24374;DHT22;12498;50.880;12.096;2023-02-02T00:22:11;3.70;99.90
24374;DHT22;12498;50.880;12.096;2023-02-02T00:24:36;3.80;99.90
24374;DHT22;12498;50.880;12.096;2023-02-02T00:27:02;3.70;99.90
24374;DHT22;12498;50.880;12.096;2023-02-02T00:29:30;3.70;99.90
24374;DHT22;12498;50.880;12.096;2023-02-02T00:31:56;3.70;99.90
24374;DHT22;12498;50.880;12.096;2023-02-02T00:34:23;3.70;99.90
24374;DHT22;12498;50.880;12.096;2023-02-02T00:36:49;3.80;99.90
24374;DHT22;12498;50.880;12.096;2023-02-02T00:39:18;3.70;99.90
24374;DHT22;12498;50.880;12.096;2023-02-02T00:41:44;3.80;99.90
24374;DHT22;12498;50.880;12.096;2023-02-02T00:44:10;3.80;99.90
24374;DHT22;12498;50.880;12.096;2023-02-02T00:46:54;3.80;99.90
24374;DHT22;12498;50.880;12.096;2023-02-02T00:49:20;3.80;99.90
24374;DHT22;12498;50.880;12.096;2023-02-02T00:51:45;3.50;99.90
24374;DHT22;12498;50.880;12.096;2023-02-02T00:54:11;3.90;99.90
24374;DHT22;12498;50.880;12.096;2023-02-02T00:56:39;3.70;99.90
24374;DHT22;12498;50.880;12.096;2023-02-02T00:59:04;3.90;99.90
24374;DHT22;12498;50.880;12.096;2023-02-02T01:01:30;4.00;76.40
24374;DHT22;12498;50.880;12.096;2023-02-02T01:03:55;4.10;66.80
24374;DHT22;12498;50.880;12.096;2023-02-02T01:06:21;4.00;66.10
24374;DHT22;12498;50.880;12.096;2023-02-02T01:08:47;4.10;58.80
24374;DHT22;12498;50.880;12.096;2023-02-02T01:11:13;4.10;49.00
24374;DHT22;12498;50.880;12.096;2023-02-02T01:13:38;4.70;56.20
24374;DHT22;12498;50.880;12.096;2023-02-02T01:16:05;4.20;27.90
24374;DHT22;12498;50.880;12.096;2023-02-02T01:18:31;4.00;14.40
24374;DHT22;12498;50.880;12.096;2023-02-02T01:21:08;4.30;15.20
24374;DHT22;12498;50.880;12.096;2023-02-02T01:23:35;4.10;2.30
24374;DHT22;12498;50.880;12.096;2023-02-02T01:26:03;4.10;3.00
24374;DHT22;12498;50.880;12.096;2023-02-02T01:28:29;4.10;1.00
24374;DHT22;12498;50.880;12.096;2023-02-02T01:30:56;3.90;1.00
24374;DHT22;12498;50.880;12.096;2023-02-02T01:33:22;4.00;1.00
24374;DHT22;12498;50.880;12.096;2023-02-02T01:35:54;3.60;1.00
24374;DHT22;12498;50.880;12.096;2023-02-02T01:38:21;4.50;1.00
24374;DHT22;12498;50.880;12.096;2023-02-02T01:40:54;4.00;1.00
24374;DHT22;12498;50.880;12.096;2023-02-02T01:46:14;4.00;1.00
24374;DHT22;12498;50.880;12.096;2023-02-02T01:48:47;3.90;1.00
24374;DHT22;12498;50.880;12.096;2023-02-02T01:51:17;3.90;1.00
24374;DHT22;12498;50.880;12.096;2023-02-02T01:53:45;3.90;1.00
24374;DHT22;12498;50.880;12.096;2023-02-02T01:56:14;3.90;1.00
24374;DHT22;12498;50.880;12.096;2023-02-02T01:58:42;4.00;1.00
24374;DHT22;12498;50.880;12.096;2023-02-02T02:01:09;3.90;1.00
24374;DHT22;12498;50.880;12.096;2023-02-02T02:03:36;3.90;1.00
24374;DHT22;12498;50.880;12.096;2023-02-02T02:06:16;4.00;10.70
24374;DHT22;12498;50.880;12.096;2023-02-02T02:08:50;3.80;1.00
24374;DHT22;12498;50.880;12.096;2023-02-02T02:11:18;3.80;1.00
24374;DHT22;12498;50.880;12.096;2023-02-02T02:13:44;3.80;1.00
24374;DHT22;12498;50.880;12.096;2023-02-02T02:22:15;3.80;1.00
24374;DHT22;12498;50.880;12.096;2023-02-02T02:28:26;3.80;1.00
24374;DHT22;12498;50.880;12.096;2023-02-02T02:36:41;3.70;1.00
24374;DHT22;12498;50.880;12.096;2023-02-02T02:39:19;3.70;1.00
24374;DHT22;12498;50.880;12.096;2023-02-02T02:41:54;3.70;1.00
24374;DHT22;12498;50.880;12.096;2023-02-02T02:44:22;3.70;1.00
24374;DHT22;12498;50.880;12.096;2023-02-02T02:46:49;3.70;1.00
24374;DHT22;12498;50.880;12.096;2023-02-02T02:49:16;3.70;1.00
24374;DHT22;12498;50.880;12.096;2023-02-02T03:04:54;3.80;1.00
24374;DHT22;12498;50.880;12.096;2023-02-02T03:07:36;4.60;1.00
24374;DHT22;12498;50.880;12.096;2023-02-02T03:10:05;3.80;1.00
24374;DHT22;12498;50.880;12.096;2023-02-02T03:12:32;3.90;1.00
24374;DHT22;12498;50.880;12.096;2023-02-02T03:14:58;4.40;1.00
24374;DHT22;12498;50.880;12.096;2023-02-02T03:17:26;4.10;1.00
24374;DHT22;12498;50.880;12.096;2023-02-02T03:19:52;3.70;1.00
24374;DHT22;12498;50.880;12.096;2023-02-02T03:22:17;3.70;1.00
24374;DHT22;12498;50.880;12.096;2023-02-02T03:24:43;3.70;1.00
24374;DHT22;12498;50.880;12.096;2023-02-02T03:27:08;3.50;1.00
24374;DHT22;12498;50.880;12.096;2023-02-02T03:29:35;3.90;1.00
24374;DHT22;12498;50.880;12.096;2023-02-02T03:32:01;3.70;1.00
24374;DHT22;12498;50.880;12.096;2023-02-02T03:34:27;3.60;1.00
24374;DHT22;12498;50.880;12.096;2023-02-02T03:36:53;3.70;1.00
24374;DHT22;12498;50.880;12.096;2023-02-02T03:39:18;3.60;1.00
24374;DHT22;12498;50.880;12.096;2023-02-02T03:41:44;3.60;1.00
24374;DHT22;12498;50.880;12.096;2023-02-02T03:44:10;3.70;1.00
24374;DHT22;12498;50.880;12.096;2023-02-02T03:46:35;3.70;1.00
24374;DHT22;12498;50.880;12.096;2023-02-02T03:49:01;3.70;1.00
24374;DHT22;12498;50.880;12.096;2023-02-02T03:51:27;3.70;1.00
24374;DHT22;12498;50.880;12.096;2023-02-02T03:53:54;3.80;1.00
24374;DHT22;12498;50.880;12.096;2023-02-02T03:56:20;3.80;1.00
24374;DHT22;12498;50.880;12.096;2023-02-02T03:58:45;3.80;1.00
24374;DHT22;12498;50.880;12.096;2023-02-02T04:01:12;3.70;1.00
24374;DHT22;12498;50.880;12.096;2023-02-02T04:03:38;3.80;1.00
24374;DHT22;12498;50.880;12.096;2023-02-02T04:06:04;3.80;1.00
24374;DHT22;12498;50.880;12.096;2023-02-02T04:08:30;3.80;1.00
24374;DHT22;12498;50.880;12.096;2023-02-02T04:10:56;3.80;1.00
24374;DHT22;12498;50.880;12.096;2023-02-02T04:13:22;3.80;1.00
24374;DHT22;12498;50.880;12.096;2023-02-02T04:15:55;3.80;1.00
24374;DHT22;12498;50.880;12.096;2023-02-02T04:18:21;3.70;1.00
24374;DHT22;12498;50.880;12.096;2023-02-02T04:20:47;3.90;1.00
24374;DHT22;12498;50.880;12.096;2023-02-02T04:23:12;3.80;1.00
24374;DHT22;12498;50.880;12.096;2023-02-02T04:25:38;3.80;1.00
24374;DHT22;12498;50.880;12.096;2023-02-02T04:28:04;4.10;1.00
24374;DHT22;12498;50.880;12.096;2023-02-02T04:30:29;3.80;1.00
24374;DHT22;12498;50.880;12.096;2023-02-02T04:32:55;3.80;1.00
24374;DHT22;12498;50.880;12.096;2023-02-02T04:35:20;3.80;1.00
24374;DHT22;12498;50.880;12.096;2023-02-02T04:37:46;4.10;1.00
24374;DHT22;12498;50.880;12.096;2023-02-02T04:40:12;3.90;1.00
24374;DHT22;12498;50.880;12.096;2023-02-02T04:42:38;3.90;1.00
24374;DHT22;12498;50.880;12.096;2023-02-02T04:45:04;3.80;1.00
24374;DHT22;12498;50.880;12.096;2023-02-02T04:49:56;4.00;1.00
24374;DHT22;12498;50.880;12.096;2023-02-02T04:52:22;3.80;1.00
24374;DHT22;12498;50.880;12.096;2023-02-02T04:54:47;3.90;1.00
24374;DHT22;12498;50.880;12.096;2023-02-02T04:57:13;4.70;1.00
24374;DHT22;12498;50.880;12.096;2023-02-02T04:59:39;3.80;1.00
24374;DHT22;12498;50.880;12.096;2023-02-02T05:02:04;3.80;1.00
24374;DHT22;12498;50.880;12.096;2023-02-02T05:04:30;3.80;1.00
24374;DHT22;12498;50.880;12.096;2023-02-02T05:06:55;3.80;1.00
24374;DHT22;12498;50.880;12.096;2023-02-02T05:09:21;3.80;1.00
24374;DHT22;12498;50.880;12.096;2023-02-02T05:11:47;3.90;1.00
24374;DHT22;12498;50.880;12.096;2023-02-02T05:14:13;3.80;1.00
24374;DHT22;12498;50.880;12.096;2023-02-02T05:16:41;3.80;1.00
24374;DHT22;12498;50.880;12.096;2023-02-02T05:19:08;3.90;1.00
24374;DHT22;12498;50.880;12.096;2023-02-02T05:21:34;3.80;1.00
24374;DHT22;12498;50.880;12.096;2023-02-02T05:24:00;3.80;1.00
24374;DHT22;12498;50.880;12.096;2023-02-02T05:26:27;3.90;1.00
24374;DHT22;12498;50.880;12.096;2023-02-02T05:28:53;3.80;1.00
24374;DHT22;12498;50.880;12.096;2023-02-02T05:31:18;3.90;1.00
24374;DHT22;12498;50.880;12.096;2023-02-02T05:33:44;3.80;1.00
24374;DHT22;12498;50.880;12.096;2023-02-02T05:36:10;3.80;1.00
24374;DHT22;12498;50.880;12.096;2023-02-02T05:38:35;3.80;1.00
24374;DHT22;12498;50.880;12.096;2023-02-02T05:41:01;3.90;1.00
24374;DHT22;12498;50.880;12.096;2023-02-02T05:43:28;3.90;1.00
24374;DHT22;12498;50.880;12.096;2023-02-02T05:45:54;4.30;1.00
24374;DHT22;12498;50.880;12.096;2023-02-02T05:48:20;3.80;1.00
24374;DHT22;12498;50.880;12.096;2023-02-02T05:51:00;3.80;1.00
24374;DHT22;12498;50.880;12.096;2023-02-02T05:53:29;3.90;99.90
24374;DHT22;12498;50.880;12.096;2023-02-02T05:55:54;4.00;99.90
24374;DHT22;12498;50.880;12.096;2023-02-02T05:58:20;4.60;31.00
24374;DHT22;12498;50.880;12.096;2023-02-02T06:00:45;4.10;20.80
24374;DHT22;12498;50.880;12.096;2023-02-02T06:03:11;4.30;1.00
24374;DHT22;12498;50.880;12.096;2023-02-02T06:05:38;4.30;85.30
24374;DHT22;12498;50.880;12.096;2023-02-02T06:08:04;4.20;1.00
24374;DHT22;12498;50.880;12.096;2023-02-02T06:10:29;4.00;1.00
24374;DHT22;12498;50.880;12.096;2023-02-02T06:12:58;4.00;1.00
24374;DHT22;12498;50.880;12.096;2023-02-02T06:15:23;3.90;1.00
24374;DHT22;12498;50.880;12.096;2023-02-02T06:17:51;3.90;1.00
24374;DHT22;12498;50.880;12.096;2023-02-02T06:20:17;3.90;1.00
24374;DHT22;12498;50.880;12.096;2023-02-02T06:22:43;3.90;1.00
24374;DHT22;12498;50.880;12.096;2023-02-02T06:25:09;3.80;1.00
24374;DHT22;12498;50.880;12.096;2023-02-02T06:27:35;3.80;1.00
24374;DHT22;12498;50.880;12.096;2023-02-02T06:30:00;3.90;1.00
24374;DHT22;12498;50.880;12.096;2023-02-02T06:32:28;3.90;1.00
24374;DHT22;12498;50.880;12.096;2023-02-02T06:34:55;3.90;1.00
24374;DHT22;12498;50.880;12.096;2023-02-02T06:37:20;3.90;1.00
24374;DHT22;12498;50.880;12.096;2023-02-02T06:39:46;3.90;1.20
24374;DHT22;12498;50.880;12.096;2023-02-02T06:42:12;3.90;1.30
24374;DHT22;12498;50.880;12.096;2023-02-02T06:44:37;3.90;1.00
24374;DHT22;12498;50.880;12.096;2023-02-02T06:47:03;3.90;1.00
24374;DHT22;12498;50.880;12.096;2023-02-02T06:49:29;3.90;1.60
24374;DHT22;12498;50.880;12.096;2023-02-02T06:51:54;4.60;2.40
24374;DHT22;12498;50.880;12.096;2023-02-02T06:54:20;3.80;13.40
24374;DHT22;12498;50.880;12.096;2023-02-02T06:56:45;3.90;2.10
24374;DHT22;12498;50.880;12.096;2023-02-02T06:59:11;3.80;11.60
24374;DHT22;12498;50.880;12.096;2023-02-02T07:01:36;3.90;1.00
24374;DHT22;12498;50.880;12.096;2023-02-02T07:04:02;4.00;1.00
24374;DHT22;12498;50.880;12.096;2023-02-02T07:06:28;4.00;1.00
24374;DHT22;12498;50.880;12.096;2023-02-02T07:08:55;4.00;1.80
24374;DHT22;12498;50.880;12.096;2023-02-02T07:11:21;4.00;1.60
24374;DHT22;12498;50.880;12.096;2023-02-02T07:13:48;4.10;2.30
24374;DHT22;12498;50.880;12.096;2023-02-02T07:16:15;4.00;4.20
24374;DHT22;12498;50.880;12.096;2023-02-02T07:18:42;4.20;4.20
24374;DHT22;12498;50.880;12.096;2023-02-02T07:21:09;4.20;1.00
24374;DHT22;12498;50.880;12.096;2023-02-02T07:23:39;4.10;1.00
24374;DHT22;12498;50.880;12.096;2023-02-02T07:26:07;4.20;5.70
24374;DHT22;12498;50.880;12.096;2023-02-02T07:28:33;4.30;6.00
24374;DHT22;12498;50.880;12.096;2023-02-02T07:30:59;4.20;4.60
24374;DHT22;12498;50.880;12.096;2023-02-02T07:33:25;4.90;3.90
24374;DHT22;12498;50.880;12.096;2023-02-02T07:35:51;4.30;1.00
24374;DHT22;12498;50.880;12.096;2023-02-02T07:38:17;4.30;1.00
24374;DHT22;12498;50.880;12.096;2023-02-02T07:40:44;4.30;2.50
24374;DHT22;12498;50.880;12.096;2023-02-02T07:43:09;4.30;1.00
24374;DHT22;12498;50.880;12.096;2023-02-02T07:45:35;4.30;3.50
24374;DHT22;12498;50.880;12.096;2023-02-02T07:48:01;4.30;1.00
24374;DHT22;12498;50.880;12.096;2023-02-02T07:50:29;4.40;2.70
24374;DHT22;12498;50.880;12.096;2023-02-02T07:52:55;4.40;5.90
24374;DHT22;12498;50.880;12.096;2023-02-02T07:55:20;4.40;5.60
24374;DHT22;12498;50.880;12.096;2023-02-02T07:57:46;4.80;16.90
24374;DHT22;12498;50.880;12.096;2023-02-02T08:00:12;4.40;6.00
24374;DHT22;12498;50.880;12.096;2023-02-02T08:02:38;4.50;4.40
24374;DHT22;12498;50.880;12.096;2023-02-02T08:05:04;4.60;13.20
24374;DHT22;12498;50.880;12.096;2023-02-02T08:07:33;4.50;3.30
24374;DHT22;12498;50.880;12.096;2023-02-02T08:09:59;4.60;5.50
24374;DHT22;12498;50.880;12.096;2023-02-02T08:12:24;4.60;4.90
24374;DHT22;12498;50.880;12.096;2023-02-02T08:14:51;4.60;5.90
24374;DHT22;12498;50.880;12.096;2023-02-02T08:17:17;4.60;4.00
24374;DHT22;12498;50.880;12.096;2023-02-02T08:19:43;4.70;3.10
24374;DHT22;12498;50.880;12.096;2023-02-02T08:22:08;4.90;15.10
24374;DHT22;12498;50.880;12.096;2023-02-02T08:24:34;4.70;5.00
24374;DHT22;12498;50.880;12.096;2023-02-02T08:27:06;4.70;6.10
24374;DHT22;12498;50.880;12.096;2023-02-02T08:29:32;4.70;7.90
24374;DHT22;12498;50.880;12.096;2023-02-02T08:31:58;4.80;10.10
24374;DHT22;12498;50.880;12.096;2023-02-02T08:34:24;4.60;16.40
24374;DHT22;12498;50.880;12.096;2023-02-02T08:36:50;4.70;24.10
24374;DHT22;12498;50.880;12.096;2023-02-02T08:39:16;4.80;14.90
24374;DHT22;12498;50.880;12.096;2023-02-02T08:41:41;4.80;16.80
24374;DHT22;12498;50.880;12.096;2023-02-02T08:44:08;4.80;19.40
24374;DHT22;12498;50.880;12.096;2023-02-02T08:46:34;4.90;19.20
24374;DHT22;12498;50.880;12.096;2023-02-02T08:49:00;4.90;25.20
24374;DHT22;12498;50.880;12.096;2023-02-02T08:51:26;4.90;27.40
24374;DHT22;12498;50.880;12.096;2023-02-02T08:53:51;4.90;28.00
24374;DHT22;12498;50.880;12.096;2023-02-02T08:56:19;4.90;30.00
24374;DHT22;12498;50.880;12.096;2023-02-02T08:58:48;5.00;28.40
24374;DHT22;12498;50.880;12.096;2023-02-02T09:01:16;5.00;28.90
24374;DHT22;12498;50.880;12.096;2023-02-02T09:03:43;5.00;30.00
24374;DHT22;12498;50.880;12.096;2023-02-02T09:06:12;5.10;29.80
24374;DHT22;12498;50.880;12.096;2023-02-02T09:08:38;5.10;36.70
24374;DHT22;12498;50.880;12.096;2023-02-02T09:11:05;5.10;35.20
24374;DHT22;12498;50.880;12.096;2023-02-02T09:13:31;5.10;43.20
24374;DHT22;12498;50.880;12.096;2023-02-02T09:16:01;5.10;45.00
24374;DHT22;12498;50.880;12.096;2023-02-02T09:18:27;5.20;46.40
24374;DHT22;12498;50.880;12.096;2023-02-02T09:20:53;5.10;46.30
24374;DHT22;12498;50.880;12.096;2023-02-02T09:23:19;5.20;50.10
24374;DHT22;12498;50.880;12.096;2023-02-02T09:25:45;5.30;52.00
24374;DHT22;12498;50.880;12.096;2023-02-02T09:28:11;5.30;53.80
24374;DHT22;12498;50.880;12.096;2023-02-02T09:30:37;5.30;52.70
24374;DHT22;12498;50.880;12.096;2023-02-02T09:33:03;5.30;67.80
24374;DHT22;12498;50.880;12.096;2023-02-02T09:35:29;5.30;75.90
24374;DHT22;12498;50.880;12.096;2023-02-02T09:37:54;5.30;77.30
24374;DHT22;12498;50.880;12.096;2023-02-02T09:40:20;5.40;77.80
24374;DHT22;12498;50.880;12.096;2023-02-02T09:43:39;5.40;91.30
24374;DHT22;12498;50.880;12.096;2023-02-02T09:46:18;5.40;91.90
24374;DHT22;12498;50.880;12.096;2023-02-02T09:49:06;5.40;93.60
24374;DHT22;12498;50.880;12.096;2023-02-02T09:51:37;5.50;94.50
24374;DHT22;12498;50.880;12.096;2023-02-02T09:54:35;5.50;95.30
24374;DHT22;12498;50.880;12.096;2023-02-02T09:57:04;5.60;97.40
24374;DHT22;12498;50.880;12.096;2023-02-02T09:59:39;5.60;99.90
24374;DHT22;12498;50.880;12.096;2023-02-02T10:02:21;5.60;99.90
24374;DHT22;12498;50.880;12.096;2023-02-02T10:04:54;5.60;99.90
24374;DHT22;12498;50.880;12.096;2023-02-02T10:07:37;5.50;99.90
24374;DHT22;12498;50.880;12.096;2023-02-02T10:15:44;5.30;99.90
24374;DHT22;12498;50.880;12.096;2023-02-02T10:20:56;5.40;99.90
24374;DHT22;12498;50.880;12.096;2023-02-02T10:23:43;5.20;99.90
24374;DHT22;12498;50.880;12.096;2023-02-02T10:26:21;5.30;99.90
24374;DHT22;12498;50.880;12.096;2023-02-02T10:34:26;5.20;99.90
24374;DHT22;12498;50.880;12.096;2023-02-02T10:40:03;5.20;99.90
24374;DHT22;12498;50.880;12.096;2023-02-02T10:45:34;5.10;99.90
24374;DHT22;12498;50.880;12.096;2023-02-02T10:48:01;5.00;99.90
24374;DHT22;12498;50.880;12.096;2023-02-02T10:50:27;5.10;99.90
24374;DHT22;12498;50.880;12.096;2023-02-02T10:53:01;5.10;99.90
24374;DHT22;12498;50.880;12.096;2023-02-02T10:55:54;5.10;99.90
24374;DHT22;12498;50.880;12.096;2023-02-02T10:58:55;5.30;99.90
24374;DHT22;12498;50.880;12.096;2023-02-02T11:01:12;5.00;99.90
24374;DHT22;12498;50.880;12.096;2023-02-02T11:03:42;5.00;99.90
24374;DHT22;12498;50.880;12.096;2023-02-02T11:06:10;5.70;99.90
24374;DHT22;12498;50.880;12.096;2023-02-02T11:08:56;5.10;99.90
24374;DHT22;12498;50.880;12.096;2023-02-02T11:11:33;5.20;99.90
24374;DHT22;12498;50.880;12.096;2023-02-02T11:14:29;5.20;99.90
24374;DHT22;12498;50.880;12.096;2023-02-02T11:17:04;5.20;99.90
24374;DHT22;12498;50.880;12.096;2023-02-02T11:19:32;5.10;99.90
24374;DHT22;12498;50.880;12.096;2023-02-02T11:22:01;5.10;99.90
24374;DHT22;12498;50.880;12.096;2023-02-02T11:26:55;5.00;99.90
24374;DHT22;12498;50.880;12.096;2023-02-02T11:29:44;4.90;99.90
24374;DHT22;12498;50.880;12.096;2023-02-02T11:37:28;5.10;99.90
24374;DHT22;12498;50.880;12.096;2023-02-02T11:39:53;5.20;99.90
24374;DHT22;12498;50.880;12.096;2023-02-02T11:42:21;5.50;99.90
24374;DHT22;12498;50.880;12.096;2023-02-02T11:44:58;5.60;99.90
24374;DHT22;12498;50.880;12.096;2023-02-02T11:47:29;5.50;99.90
24374;DHT22;12498;50.880;12.096;2023-02-02T11:49:59;5.40;99.90
24374;DHT22;12498;50.880;12.096;2023-02-02T11:52:27;5.60;99.90
24374;DHT22;12498;50.880;12.096;2023-02-02T11:55:00;5.30;99.90
24374;DHT22;12498;50.880;12.096;2023-02-02T11:57:28;5.30;99.90
24374;DHT22;12498;50.880;12.096;2023-02-02T12:02:34;5.30;99.90
24374;DHT22;12498;50.880;12.096;2023-02-02T12:07:34;5.40;99.90
24374;DHT22;12498;50.880;12.096;2023-02-02T12:10:28;5.30;99.90
24374;DHT22;12498;50.880;12.096;2023-02-02T12:13:08;5.40;99.90
24374;DHT22;12498;50.880;12.096;2023-02-02T12:21:41;5.30;99.90
24374;DHT22;12498;50.880;12.096;2023-02-02T12:24:43;5.30;99.90
24374;DHT22;12498;50.880;12.096;2023-02-02T12:27:34;5.10;99.90
24374;DHT22;12498;50.880;12.096;2023-02-02T12:33:17;5.20;99.90
24374;DHT22;12498;50.880;12.096;2023-02-02T12:44:25;5.60;99.90
24374;DHT22;12498;50.880;12.096;2023-02-02T12:52:45;5.40;99.90
24374;DHT22;12498;50.880;12.096;2023-02-02T12:55:16;5.50;99.90
24374;DHT22;12498;50.880;12.096;2023-02-02T13:00:29;5.50;99.90
24374;DHT22;12498;50.880;12.096;2023-02-02T13:09:23;5.60;99.90
24374;DHT22;12498;50.880;12.096;2023-02-02T13:14:58;5.60;99.90
24374;DHT22;12498;50.880;12.096;2023-02-02T13:20:05;6.20;99.90
24374;DHT22;12498;50.880;12.096;2023-02-02T13:22:37;5.50;99.90
24374;DHT22;12498;50.880;12.096;2023-02-02T13:25:07;5.80;99.90
24374;DHT22;12498;50.880;12.096;2023-02-02T13:27:33;5.60;99.90
24374;DHT22;12498;50.880;12.096;2023-02-02T13:32:50;5.70;99.90
24374;DHT22;12498;50.880;12.096;2023-02-02T13:35:20;6.10;99.90
24374;DHT22;12498;50.880;12.096;2023-02-02T13:37:55;5.60;99.90
24374;DHT22;12498;50.880;12.096;2023-02-02T13:40:27;5.90;99.90
24374;DHT22;12498;50.880;12.096;2023-02-02T13:43:05;5.60;99.90
24374;DHT22;12498;50.880;12.096;2023-02-02T13:57:32;5.70;99.90
24374;DHT22;12498;50.880;12.096;2023-02-02T14:00:26;5.60;99.90
24374;DHT22;12498;50.880;12.096;2023-02-02T14:06:21;5.40;99.90
24374;DHT22;12498;50.880;12.096;2023-02-02T14:09:01;5.40;99.90
24374;DHT22;12498;50.880;12.096;2023-02-02T14:11:34;5.50;99.90
24374;DHT22;12498;50.880;12.096;2023-02-02T14:14:17;5.50;99.90
24374;DHT22;12498;50.880;12.096;2023-02-02T14:17:06;5.50;99.90
24374;DHT22;12498;50.880;12.096;2023-02-02T14:24:45;5.30;99.90
24374;DHT22;12498;50.880;12.096;2023-02-02T14:43:16;5.00;7.10
24374;DHT22;12498;50.880;12.096;2023-02-02T14:48:40;4.70;1.00
24374;DHT22;12498;50.880;12.096;2023-02-02T14:51:17;4.70;1.00
24374;DHT22;12498;50.880;12.096;2023-02-02T14:53:58;4.70;1.00
24374;DHT22;12498;50.880;12.096;2023-02-02T14:59:45;4.70;1.00
24374;DHT22;12498;50.880;12.096;2023-02-02T15:02:38;4.60;1.00
24374;DHT22;12498;50.880;12.096;2023-02-02T15:08:04;4.70;1.00
24374;DHT22;12498;50.880;12.096;2023-02-02T15:13:19;4.70;1.00
24374;DHT22;12498;50.880;12.096;2023-02-02T15:15:48;5.00;1.00
24374;DHT22;12498;50.880;12.096;2023-02-02T15:18:25;4.70;1.00
24374;DHT22;12498;50.880;12.096;2023-02-02T15:20:55;4.70;1.00
24374;DHT22;12498;50.880;12.096;2023-02-02T15:23:37;4.70;1.00
24374;DHT22;12498;50.880;12.096;2023-02-02T15:26:19;4.60;1.00
24374;DHT22;12498;50.880;12.096;2023-02-02T15:28:59;4.60;2.70
24374;DHT22;12498;50.880;12.096;2023-02-02T15:31:41;4.70;1.00
24374;DHT22;12498;50.880;12.096;2023-02-02T15:34:26;4.90;1.00
24374;DHT22;12498;50.880;12.096;2023-02-02T15:36:57;4.60;1.00
24374;DHT22;12498;50.880;12.096;2023-02-02T15:39:33;4.60;1.00
24374;DHT22;12498;50.880;12.096;2023-02-02T15:42:04;4.50;1.00
24374;DHT22;12498;50.880;12.096;2023-02-02T15:44:49;4.50;2.30
24374;DHT22;12498;50.880;12.096;2023-02-02T15:47:21;4.40;8.20
24374;DHT22;12498;50.880;12.096;2023-02-02T15:49:49;4.40;6.40
24374;DHT22;12498;50.880;12.096;2023-02-02T15:52:16;4.40;3.20
24374;DHT22;12498;50.880;12.096;2023-02-02T15:54:52;4.70;2.90
24374;DHT22;12498;50.880;12.096;2023-02-02T15:59:52;4.40;5.50
24374;DHT22;12498;50.880;12.096;2023-02-02T16:04:43;4.40;8.80
24374;DHT22;12498;50.880;12.096;2023-02-02T16:07:13;4.40;16.60
24374;DHT22;12498;50.880;12.096;2023-02-02T16:09:40;4.20;32.20
24374;DHT22;12498;50.880;12.096;2023-02-02T16:12:14;4.10;21.00
24374;DHT22;12498;50.880;12.096;2023-02-02T16:14:49;4.50;15.50
24374;DHT22;12498;50.880;12.096;2023-02-02T16:17:29;4.60;20.40
24374;DHT22;12498;50.880;12.096;2023-02-02T16:22:27;4.40;14.50
24374;DHT22;12498;50.880;12.096;2023-02-02T16:24:58;4.40;13.70
24374;DHT22;12498;50.880;12.096;2023-02-02T16:27:26;4.40;16.60
24374;DHT22;12498;50.880;12.096;2023-02-02T16:29:56;4.20;29.20
24374;DHT22;12498;50.880;12.096;2023-02-02T16:32:31;4.40;18.40
24374;DHT22;12498;50.880;12.096;2023-02-02T16:35:01;4.40;18.10
24374;DHT22;12498;50.880;12.096;2023-02-02T16:37:33;4.40;17.60
24374;DHT22;12498;50.880;12.096;2023-02-02T16:40:26;4.40;15.60
24374;DHT22;12498;50.880;12.096;2023-02-02T16:43:12;4.30;21.30
24374;DHT22;12498;50.880;12.096;2023-02-02T16:48:40;4.30;24.50
24374;DHT22;12498;50.880;12.096;2023-02-02T16:56:41;4.30;24.80
24374;DHT22;12498;50.880;12.096;2023-02-02T16:59:26;4.30;24.60
24374;DHT22;12498;50.880;12.096;2023-02-02T17:02:02;4.20;29.10
24374;DHT22;12498;50.880;12.096;2023-02-02T17:04:31;4.30;29.00
24374;DHT22;12498;50.880;12.096;2023-02-02T17:07:06;4.30;30.90
24374;DHT22;12498;50.880;12.096;2023-02-02T17:09:37;4.20;36.10
24374;DHT22;12498;50.880;12.096;2023-02-02T17:14:56;4.00;58.20
24374;DHT22;12498;50.880;12.096;2023-02-02T17:17:25;4.00;73.80
24374;DHT22;12498;50.880;12.096;2023-02-02T17:19:51;4.00;69.70
24374;DHT22;12498;50.880;12.096;2023-02-02T17:22:21;4.00;85.10
24374;DHT22;12498;50.880;12.096;2023-02-02T17:24:49;3.90;82.20
24374;DHT22;12498;50.880;12.096;2023-02-02T17:27:27;3.90;91.40
24374;DHT22;12498;50.880;12.096;2023-02-02T17:29:55;3.90;94.80
24374;DHT22;12498;50.880;12.096;2023-02-02T17:32:21;4.10;98.40
24374;DHT22;12498;50.880;12.096;2023-02-02T17:34:48;3.80;99.90
24374;DHT22;12498;50.880;12.096;2023-02-02T17:37:13;3.80;99.90
24374;DHT22;12498;50.880;12.096;2023-02-02T17:39:39;3.70;99.90
24374;DHT22;12498;50.880;12.096;2023-02-02T17:42:05;3.80;99.90
24374;DHT22;12498;50.880;12.096;2023-02-02T17:44:31;3.70;99.90
24374;DHT22;12498;50.880;12.096;2023-02-02T17:46:58;3.70;99.90
24374;DHT22;12498;50.880;12.096;2023-02-02T17:49:23;3.70;99.90
24374;DHT22;12498;50.880;12.096;2023-02-02T17:51:49;3.70;99.90
24374;DHT22;12498;50.880;12.096;2023-02-02T17:54:15;3.80;99.90
24374;DHT22;12498;50.880;12.096;2023-02-02T17:56:41;3.80;99.90
24374;DHT22;12498;50.880;12.096;2023-02-02T17:59:08;3.80;99.90
24374;DHT22;12498;50.880;12.096;2023-02-02T18:01:36;3.80;99.90
24374;DHT22;12498;50.880;12.096;2023-02-02T18:04:04;4.40;99.90
24374;DHT22;12498;50.880;12.096;2023-02-02T18:06:30;3.90;99.90
24374;DHT22;12498;50.880;12.096;2023-02-02T18:08:56;3.80;99.90
24374;DHT22;12498;50.880;12.096;2023-02-02T18:11:21;3.90;99.90
24374;DHT22;12498;50.880;12.096;2023-02-02T18:13:47;3.90;99.90
24374;DHT22;12498;50.880;12.096;2023-02-02T18:16:13;3.90;99.90
24374;DHT22;12498;50.880;12.096;2023-02-02T18:18:39;3.90;99.90
24374;DHT22;12498;50.880;12.096;2023-02-02T18:21:09;4.00;99.90
24374;DHT22;12498;50.880;12.096;2023-02-02T18:23:36;4.00;99.90
24374;DHT22;12498;50.880;12.096;2023-02-02T18:26:13;4.00;99.60
24374;DHT22;12498;50.880;12.096;2023-02-02T18:28:39;4.10;98.20
24374;DHT22;12498;50.880;12.096;2023-02-02T18:31:09;4.10;98.40
24374;DHT22;12498;50.880;12.096;2023-02-02T18:33:36;4.10;93.70
24374;DHT22;12498;50.880;12.096;2023-02-02T18:36:20;4.10;95.60
24374;DHT22;12498;50.880;12.096;2023-02-02T18:38:48;4.10;91.00
24374;DHT22;12498;50.880;12.096;2023-02-02T18:41:16;4.00;93.70
24374;DHT22;12498;50.880;12.096;2023-02-02T18:43:42;4.00;99.90
24374;DHT22;12498;50.880;12.096;2023-02-02T18:46:11;4.10;99.90